sensor_id;sensor_type;location;lat;lon;timestamp;temperature;humidity
10903;DHT22;5504;47.312;11.060;2022-08-27T00:00:16;20.00;96.10
10903;DHT22;5504;47.312;11.060;2022-08-27T00:02:43;19.90;95.70
10903;DHT22;5504;47.312;11.060;2022-08-27T00:05:11;19.80;95.90
10903;DHT22;5504;47.312;11.060;2022-08-27T00:07:37;19.70;96.20
10903;DHT22;5504;47.312;11.060;2022-08-27T00:10:05;19.60;96.40
10903;DHT22;5504;47.312;11.060;2022-08-27T00:12:32;19.60;97.00
10903;DHT22;5504;47.312;11.060;2022-08-27T00:14:58;19.50;96.70
10903;DHT22;5504;47.312;11.060;2022-08-27T00:17:25;19.50;96.80
10903;DHT22;5504;47.312;11.060;2022-08-27T00:19:51;19.60;97.00
10903;DHT22;5504;47.312;11.060;2022-08-27T00:22:16;19.70;96.70
10903;DHT22;5504;47.312;11.060;2022-08-27T00:24:42;19.80;96.10
10903;DHT22;5504;47.312;11.060;2022-08-27T00:27:08;19.80;96.20
10903;DHT22;5504;47.312;11.060;2022-08-27T00:29:33;19.90;95.80
10903;DHT22;5504;47.312;11.060;2022-08-27T00:31:59;20.00;95.20
10903;DHT22;5504;47.312;11.060;2022-08-27T00:34:25;20.10;94.40
10903;DHT22;5504;47.312;11.060;2022-08-27T00:36:50;20.10;93.80
10903;DHT22;5504;47.312;11.060;2022-08-27T00:39:17;20.10;93.80
10903;DHT22;5504;47.312;11.060;2022-08-27T00:41:44;20.00;94.00
10903;DHT22;5504;47.312;11.060;2022-08-27T00:44:09;19.90;94.40
10903;DHT22;5504;47.312;11.060;2022-08-27T00:46:43;19.90;94.20
10903;DHT22;5504;47.312;11.060;2022-08-27T00:49:20;19.90;94.60
10903;DHT22;5504;47.312;11.060;2022-08-27T00:51:53;19.50;94.30
10903;DHT22;5504;47.312;11.060;2022-08-27T00:54:21;19.40;94.20
10903;DHT22;5504;47.312;11.060;2022-08-27T00:56:47;19.30;94.80
10903;DHT22;5504;47.312;11.060;2022-08-27T00:59:14;18.80;95.00
10903;DHT22;5504;47.312;11.060;2022-08-27T01:01:42;18.90;95.30
10903;DHT22;5504;47.312;11.060;2022-08-27T01:04:28;18.70;95.30
10903;DHT22;5504;47.312;11.060;2022-08-27T01:06:54;18.70;95.80
10903;DHT22;5504;47.312;11.060;2022-08-27T01:09:20;18.80;96.20
10903;DHT22;5504;47.312;11.060;2022-08-27T01:11:47;18.90;96.30
10903;DHT22;5504;47.312;11.060;2022-08-27T01:14:14;18.90;95.10
10903;DHT22;5504;47.312;11.060;2022-08-27T01:16:51;19.00;95.50
10903;DHT22;5504;47.312;11.060;2022-08-27T01:24:36;19.10;95.30
10903;DHT22;5504;47.312;11.060;2022-08-27T01:27:05;19.10;95.80
10903;DHT22;5504;47.312;11.060;2022-08-27T01:29:33;19.10;96.40
10903;DHT22;5504;47.312;11.060;2022-08-27T01:32:28;19.00;96.70
10903;DHT22;5504;47.312;11.060;2022-08-27T01:34:53;18.90;96.00
10903;DHT22;5504;47.312;11.060;2022-08-27T01:37:19;18.90;95.80
10903;DHT22;5504;47.312;11.060;2022-08-27T01:39:45;18.90;95.60
10903;DHT22;5504;47.312;11.060;2022-08-27T01:42:18;18.90;95.40
10903;DHT22;5504;47.312;11.060;2022-08-27T01:47:14;18.80;95.40
10903;DHT22;5504;47.312;11.060;2022-08-27T01:49:40;18.80;95.60
10903;DHT22;5504;47.312;11.060;2022-08-27T01:52:06;18.80;95.70
10903;DHT22;5504;47.312;11.060;2022-08-27T01:54:32;18.90;95.80
10903;DHT22;5504;47.312;11.060;2022-08-27T01:56:58;18.90;95.90
10903;DHT22;5504;47.312;11.060;2022-08-27T01:59:24;18.90;95.60
10903;DHT22;5504;47.312;11.060;2022-08-27T02:01:50;18.80;95.40
10903;DHT22;5504;47.312;11.060;2022-08-27T02:04:18;18.90;95.50
10903;DHT22;5504;47.312;11.060;2022-08-27T02:06:44;18.90;96.20
10903;DHT22;5504;47.312;11.060;2022-08-27T02:09:11;18.90;96.20
10903;DHT22;5504;47.312;11.060;2022-08-27T02:11:37;18.90;96.40
10903;DHT22;5504;47.312;11.060;2022-08-27T02:14:03;18.90;96.30
10903;DHT22;5504;47.312;11.060;2022-08-27T02:16:29;18.90;96.40
10903;DHT22;5504;47.312;11.060;2022-08-27T02:18:57;18.80;96.80
10903;DHT22;5504;47.312;11.060;2022-08-27T02:21:23;18.80;96.60
10903;DHT22;5504;47.312;11.060;2022-08-27T02:23:49;18.80;96.70
10903;DHT22;5504;47.312;11.060;2022-08-27T02:26:15;18.90;96.40
10903;DHT22;5504;47.312;11.060;2022-08-27T02:28:41;18.80;96.50
10903;DHT22;5504;47.312;11.060;2022-08-27T02:31:07;18.70;96.60
10903;DHT22;5504;47.312;11.060;2022-08-27T02:33:33;18.60;96.70
10903;DHT22;5504;47.312;11.060;2022-08-27T02:35:58;18.60;97.00
10903;DHT22;5504;47.312;11.060;2022-08-27T02:38:24;18.60;97.10
10903;DHT22;5504;47.312;11.060;2022-08-27T02:40:50;18.50;97.30
10903;DHT22;5504;47.312;11.060;2022-08-27T02:43:16;18.50;97.20
10903;DHT22;5504;47.312;11.060;2022-08-27T02:45:43;18.50;97.60
10903;DHT22;5504;47.312;11.060;2022-08-27T02:48:09;18.50;97.50
10903;DHT22;5504;47.312;11.060;2022-08-27T02:50:35;18.50;97.30
10903;DHT22;5504;47.312;11.060;2022-08-27T02:53:02;18.60;97.30
10903;DHT22;5504;47.312;11.060;2022-08-27T02:55:28;18.60;97.20
10903;DHT22;5504;47.312;11.060;2022-08-27T02:57:54;18.50;97.40
10903;DHT22;5504;47.312;11.060;2022-08-27T03:00:22;18.50;97.60
10903;DHT22;5504;47.312;11.060;2022-08-27T03:02:48;18.50;97.90
10903;DHT22;5504;47.312;11.060;2022-08-27T03:05:15;18.50;97.70
10903;DHT22;5504;47.312;11.060;2022-08-27T03:07:41;18.40;97.80
10903;DHT22;5504;47.312;11.060;2022-08-27T03:10:08;18.30;97.70
10903;DHT22;5504;47.312;11.060;2022-08-27T03:12:34;18.30;97.80
10903;DHT22;5504;47.312;11.060;2022-08-27T03:15:05;18.30;98.00
10903;DHT22;5504;47.312;11.060;2022-08-27T03:17:31;18.40;98.20
10903;DHT22;5504;47.312;11.060;2022-08-27T03:20:15;18.30;98.30
10903;DHT22;5504;47.312;11.060;2022-08-27T03:22:41;18.30;98.10
10903;DHT22;5504;47.312;11.060;2022-08-27T03:25:07;18.30;98.30
10903;DHT22;5504;47.312;11.060;2022-08-27T03:27:33;18.30;98.30
10903;DHT22;5504;47.312;11.060;2022-08-27T03:30:02;18.40;98.10
10903;DHT22;5504;47.312;11.060;2022-08-27T03:32:28;18.50;98.20
10903;DHT22;5504;47.312;11.060;2022-08-27T03:34:56;18.40;98.10
10903;DHT22;5504;47.312;11.060;2022-08-27T03:37:23;18.50;98.40
10903;DHT22;5504;47.312;11.060;2022-08-27T03:39:49;18.40;98.30
10903;DHT22;5504;47.312;11.060;2022-08-27T03:42:14;18.40;98.30
10903;DHT22;5504;47.312;11.060;2022-08-27T03:44:40;18.50;98.40
10903;DHT22;5504;47.312;11.060;2022-08-27T03:47:06;18.40;97.90
10903;DHT22;5504;47.312;11.060;2022-08-27T03:49:31;18.30;97.80
10903;DHT22;5504;47.312;11.060;2022-08-27T03:51:57;18.20;98.40
10903;DHT22;5504;47.312;11.060;2022-08-27T03:54:23;18.20;98.60
10903;DHT22;5504;47.312;11.060;2022-08-27T03:56:49;18.20;98.70
10903;DHT22;5504;47.312;11.060;2022-08-27T03:59:15;18.30;98.40
10903;DHT22;5504;47.312;11.060;2022-08-27T04:01:42;18.30;98.30
10903;DHT22;5504;47.312;11.060;2022-08-27T04:04:08;18.30;98.50
10903;DHT22;5504;47.312;11.060;2022-08-27T04:06:34;18.30;98.50
10903;DHT22;5504;47.312;11.060;2022-08-27T04:09:01;18.30;98.40
10903;DHT22;5504;47.312;11.060;2022-08-27T04:11:26;18.30;98.50
10903;DHT22;5504;47.312;11.060;2022-08-27T04:13:54;18.30;98.30
10903;DHT22;5504;47.312;11.060;2022-08-27T04:16:20;18.40;98.30
10903;DHT22;5504;47.312;11.060;2022-08-27T04:18:46;18.40;98.20
10903;DHT22;5504;47.312;11.060;2022-08-27T04:21:13;18.40;98.30
10903;DHT22;5504;47.312;11.060;2022-08-27T04:23:41;18.40;98.40
10903;DHT22;5504;47.312;11.060;2022-08-27T04:26:08;18.30;98.60
10903;DHT22;5504;47.312;11.060;2022-08-27T04:28:34;18.30;98.90
10903;DHT22;5504;47.312;11.060;2022-08-27T04:31:02;18.20;98.90
10903;DHT22;5504;47.312;11.060;2022-08-27T04:33:28;18.20;98.90
10903;DHT22;5504;47.312;11.060;2022-08-27T04:36:00;18.20;99.20
10903;DHT22;5504;47.312;11.060;2022-08-27T04:38:26;18.20;99.10
10903;DHT22;5504;47.312;11.060;2022-08-27T04:40:52;18.20;99.20
10903;DHT22;5504;47.312;11.060;2022-08-27T04:43:36;18.30;99.30
10903;DHT22;5504;47.312;11.060;2022-08-27T04:46:02;18.30;99.00
10903;DHT22;5504;47.312;11.060;2022-08-27T04:48:28;18.30;98.60
10903;DHT22;5504;47.312;11.060;2022-08-27T04:50:54;18.30;98.60
10903;DHT22;5504;47.312;11.060;2022-08-27T04:53:19;18.40;98.60
10903;DHT22;5504;47.312;11.060;2022-08-27T04:55:48;18.30;98.60
10903;DHT22;5504;47.312;11.060;2022-08-27T04:58:15;18.30;98.80
10903;DHT22;5504;47.312;11.060;2022-08-27T05:00:46;18.20;99.10
10903;DHT22;5504;47.312;11.060;2022-08-27T05:03:14;18.20;99.30
10903;DHT22;5504;47.312;11.060;2022-08-27T05:05:41;18.20;99.20
10903;DHT22;5504;47.312;11.060;2022-08-27T05:08:08;18.30;99.10
10903;DHT22;5504;47.312;11.060;2022-08-27T05:10:44;18.30;99.00
10903;DHT22;5504;47.312;11.060;2022-08-27T05:13:11;18.30;99.00
10903;DHT22;5504;47.312;11.060;2022-08-27T05:15:37;18.30;98.80
10903;DHT22;5504;47.312;11.060;2022-08-27T05:18:05;18.20;98.70
10903;DHT22;5504;47.312;11.060;2022-08-27T05:20:31;18.20;98.70
10903;DHT22;5504;47.312;11.060;2022-08-27T05:22:57;18.20;98.80
10903;DHT22;5504;47.312;11.060;2022-08-27T05:25:24;18.20;99.10
10903;DHT22;5504;47.312;11.060;2022-08-27T05:27:50;18.20;99.10
10903;DHT22;5504;47.312;11.060;2022-08-27T05:30:16;18.30;99.00
10903;DHT22;5504;47.312;11.060;2022-08-27T05:32:42;18.30;99.30
10903;DHT22;5504;47.312;11.060;2022-08-27T05:35:08;18.30;99.10
10903;DHT22;5504;47.312;11.060;2022-08-27T05:37:35;18.30;99.20
10903;DHT22;5504;47.312;11.060;2022-08-27T05:40:02;18.30;99.00
10903;DHT22;5504;47.312;11.060;2022-08-27T05:42:29;18.50;98.60
10903;DHT22;5504;47.312;11.060;2022-08-27T05:44:56;18.50;98.50
10903;DHT22;5504;47.312;11.060;2022-08-27T05:47:22;18.60;98.50
10903;DHT22;5504;47.312;11.060;2022-08-27T05:49:51;18.70;98.20
10903;DHT22;5504;47.312;11.060;2022-08-27T05:52:18;18.70;97.90
10903;DHT22;5504;47.312;11.060;2022-08-27T05:54:44;18.80;97.80
10903;DHT22;5504;47.312;11.060;2022-08-27T05:57:10;18.80;97.90
10903;DHT22;5504;47.312;11.060;2022-08-27T05:59:36;18.70;97.90
10903;DHT22;5504;47.312;11.060;2022-08-27T06:02:20;18.60;98.40
10903;DHT22;5504;47.312;11.060;2022-08-27T06:04:46;18.60;98.60
10903;DHT22;5504;47.312;11.060;2022-08-27T06:07:13;18.70;98.40
10903;DHT22;5504;47.312;11.060;2022-08-27T06:09:39;18.70;98.40
10903;DHT22;5504;47.312;11.060;2022-08-27T06:12:05;18.80;98.00
10903;DHT22;5504;47.312;11.060;2022-08-27T06:14:31;18.80;98.40
10903;DHT22;5504;47.312;11.060;2022-08-27T06:16:59;18.90;98.60
10903;DHT22;5504;47.312;11.060;2022-08-27T06:19:25;19.00;98.10
10903;DHT22;5504;47.312;11.060;2022-08-27T06:21:51;19.00;98.10
10903;DHT22;5504;47.312;11.060;2022-08-27T06:24:17;19.20;98.30
10903;DHT22;5504;47.312;11.060;2022-08-27T06:26:44;19.20;98.10
10903;DHT22;5504;47.312;11.060;2022-08-27T06:29:11;19.30;98.20
10903;DHT22;5504;47.312;11.060;2022-08-27T06:31:37;19.40;97.60
10903;DHT22;5504;47.312;11.060;2022-08-27T06:34:06;19.40;97.20
10903;DHT22;5504;47.312;11.060;2022-08-27T06:36:34;19.40;97.70
10903;DHT22;5504;47.312;11.060;2022-08-27T06:38:59;19.40;97.60
10903;DHT22;5504;47.312;11.060;2022-08-27T06:41:27;19.50;97.80
10903;DHT22;5504;47.312;11.060;2022-08-27T06:43:54;19.50;97.50
10903;DHT22;5504;47.312;11.060;2022-08-27T06:46:22;19.60;97.40
10903;DHT22;5504;47.312;11.060;2022-08-27T06:48:52;19.70;96.90
10903;DHT22;5504;47.312;11.060;2022-08-27T06:51:21;19.80;96.20
10903;DHT22;5504;47.312;11.060;2022-08-27T06:53:49;19.80;96.00
10903;DHT22;5504;47.312;11.060;2022-08-27T06:56:16;20.00;96.00
10903;DHT22;5504;47.312;11.060;2022-08-27T06:58:42;20.10;95.90
10903;DHT22;5504;47.312;11.060;2022-08-27T07:01:15;20.30;95.60
10903;DHT22;5504;47.312;11.060;2022-08-27T07:03:42;20.40;95.30
10903;DHT22;5504;47.312;11.060;2022-08-27T07:06:09;20.50;95.50
10903;DHT22;5504;47.312;11.060;2022-08-27T07:08:35;20.70;95.70
10903;DHT22;5504;47.312;11.060;2022-08-27T07:11:01;21.10;95.30
10903;DHT22;5504;47.312;11.060;2022-08-27T07:13:27;21.40;95.50
10903;DHT22;5504;47.312;11.060;2022-08-27T07:15:54;22.00;94.90
10903;DHT22;5504;47.312;11.060;2022-08-27T07:18:20;22.60;93.90
10903;DHT22;5504;47.312;11.060;2022-08-27T07:20:47;23.20;92.20
10903;DHT22;5504;47.312;11.060;2022-08-27T07:23:13;23.50;91.10
10903;DHT22;5504;47.312;11.060;2022-08-27T07:25:42;23.50;89.30
10903;DHT22;5504;47.312;11.060;2022-08-27T07:28:08;24.00;89.10
10903;DHT22;5504;47.312;11.060;2022-08-27T07:30:34;24.30;87.00
10903;DHT22;5504;47.312;11.060;2022-08-27T07:33:02;24.50;84.80
10903;DHT22;5504;47.312;11.060;2022-08-27T07:35:27;24.50;85.70
10903;DHT22;5504;47.312;11.060;2022-08-27T07:37:53;24.40;83.90
10903;DHT22;5504;47.312;11.060;2022-08-27T07:40:19;24.30;84.10
10903;DHT22;5504;47.312;11.060;2022-08-27T07:42:44;23.90;82.80
10903;DHT22;5504;47.312;11.060;2022-08-27T07:45:29;23.60;85.40
10903;DHT22;5504;47.312;11.060;2022-08-27T07:47:55;23.00;83.50
10903;DHT22;5504;47.312;11.060;2022-08-27T07:50:21;22.90;89.00
10903;DHT22;5504;47.312;11.060;2022-08-27T07:52:49;22.70;90.10
10903;DHT22;5504;47.312;11.060;2022-08-27T07:55:15;22.80;88.40
10903;DHT22;5504;47.312;11.060;2022-08-27T07:57:41;22.80;90.20
10903;DHT22;5504;47.312;11.060;2022-08-27T08:00:08;22.90;90.50
10903;DHT22;5504;47.312;11.060;2022-08-27T08:02:35;23.00;90.40
10903;DHT22;5504;47.312;11.060;2022-08-27T08:05:01;22.60;86.90
10903;DHT22;5504;47.312;11.060;2022-08-27T08:07:27;22.60;90.80
10903;DHT22;5504;47.312;11.060;2022-08-27T08:09:53;22.80;90.80
10903;DHT22;5504;47.312;11.060;2022-08-27T08:12:19;23.00;90.40
10903;DHT22;5504;47.312;11.060;2022-08-27T08:14:44;23.10;90.70
10903;DHT22;5504;47.312;11.060;2022-08-27T08:17:11;23.00;90.70
10903;DHT22;5504;47.312;11.060;2022-08-27T08:19:38;23.30;90.50
10903;DHT22;5504;47.312;11.060;2022-08-27T08:22:06;23.40;89.30
10903;DHT22;5504;47.312;11.060;2022-08-27T08:24:33;23.80;89.50
10903;DHT22;5504;47.312;11.060;2022-08-27T08:26:59;24.00;88.20
10903;DHT22;5504;47.312;11.060;2022-08-27T08:29:25;23.50;84.30
10903;DHT22;5504;47.312;11.060;2022-08-27T08:31:50;23.70;86.00
10903;DHT22;5504;47.312;11.060;2022-08-27T08:34:17;24.00;86.40
10903;DHT22;5504;47.312;11.060;2022-08-27T08:36:44;24.10;87.60
10903;DHT22;5504;47.312;11.060;2022-08-27T08:39:09;24.20;85.50
10903;DHT22;5504;47.312;11.060;2022-08-27T08:41:42;24.10;84.90
10903;DHT22;5504;47.312;11.060;2022-08-27T08:44:24;24.10;85.60
10903;DHT22;5504;47.312;11.060;2022-08-27T08:49:46;24.20;84.30
10903;DHT22;5504;47.312;11.060;2022-08-27T08:57:35;24.50;82.00
10903;DHT22;5504;47.312;11.060;2022-08-27T09:00:09;24.40;82.10
10903;DHT22;5504;47.312;11.060;2022-08-27T09:02:49;24.30;81.80
10903;DHT22;5504;47.312;11.060;2022-08-27T09:05:15;24.40;82.30
10903;DHT22;5504;47.312;11.060;2022-08-27T09:07:46;24.70;82.10
10903;DHT22;5504;47.312;11.060;2022-08-27T09:10:42;25.20;81.90
10903;DHT22;5504;47.312;11.060;2022-08-27T09:13:42;25.60;81.00
10903;DHT22;5504;47.312;11.060;2022-08-27T09:16:11;26.10;83.90
10903;DHT22;5504;47.312;11.060;2022-08-27T09:18:38;26.60;78.60
10903;DHT22;5504;47.312;11.060;2022-08-27T09:23:44;27.30;75.70
10903;DHT22;5504;47.312;11.060;2022-08-27T09:26:25;27.50;73.00
10903;DHT22;5504;47.312;11.060;2022-08-27T09:29:02;27.90;75.00
10903;DHT22;5504;47.312;11.060;2022-08-27T09:31:44;28.50;73.90
10903;DHT22;5504;47.312;11.060;2022-08-27T09:34:12;27.70;70.40
10903;DHT22;5504;47.312;11.060;2022-08-27T09:36:50;28.50;69.50
10903;DHT22;5504;47.312;11.060;2022-08-27T09:39:17;28.60;67.20
10903;DHT22;5504;47.312;11.060;2022-08-27T09:41:46;27.80;66.00
10903;DHT22;5504;47.312;11.060;2022-08-27T09:44:16;27.40;64.50
10903;DHT22;5504;47.312;11.060;2022-08-27T09:46:57;27.80;67.10
10903;DHT22;5504;47.312;11.060;2022-08-27T09:49:24;27.40;62.40
10903;DHT22;5504;47.312;11.060;2022-08-27T09:51:51;27.10;66.10
10903;DHT22;5504;47.312;11.060;2022-08-27T09:54:44;27.70;64.70
10903;DHT22;5504;47.312;11.060;2022-08-27T09:57:14;28.10;62.00
10903;DHT22;5504;47.312;11.060;2022-08-27T09:59:52;28.30;63.30
10903;DHT22;5504;47.312;11.060;2022-08-27T10:02:24;28.40;66.30
10903;DHT22;5504;47.312;11.060;2022-08-27T10:04:52;28.70;64.70
10903;DHT22;5504;47.312;11.060;2022-08-27T10:07:55;28.90;65.90
10903;DHT22;5504;47.312;11.060;2022-08-27T10:11:09;28.80;64.20
10903;DHT22;5504;47.312;11.060;2022-08-27T10:16:06;27.70;62.20
10903;DHT22;5504;47.312;11.060;2022-08-27T10:18:54;27.30;63.20
10903;DHT22;5504;47.312;11.060;2022-08-27T10:21:32;26.80;65.20
10903;DHT22;5504;47.312;11.060;2022-08-27T10:29:58;26.80;67.50
10903;DHT22;5504;47.312;11.060;2022-08-27T10:41:01;27.00;68.70
10903;DHT22;5504;47.312;11.060;2022-08-27T10:49:38;27.40;66.50
10903;DHT22;5504;47.312;11.060;2022-08-27T10:51:52;27.10;65.80
10903;DHT22;5504;47.312;11.060;2022-08-27T10:54:50;27.40;66.70
10903;DHT22;5504;47.312;11.060;2022-08-27T11:02:56;28.70;61.90
10903;DHT22;5504;47.312;11.060;2022-08-27T11:05:34;28.20;59.90
10903;DHT22;5504;47.312;11.060;2022-08-27T11:08:10;28.60;58.60
10903;DHT22;5504;47.312;11.060;2022-08-27T11:10:40;28.10;62.90
10903;DHT22;5504;47.312;11.060;2022-08-27T11:15:56;30.00;61.20
10903;DHT22;5504;47.312;11.060;2022-08-27T11:18:36;30.50;57.80
10903;DHT22;5504;47.312;11.060;2022-08-27T11:21:30;30.00;58.60
10903;DHT22;5504;47.312;11.060;2022-08-27T11:24:23;29.30;58.50
10903;DHT22;5504;47.312;11.060;2022-08-27T11:26:54;28.80;60.00
10903;DHT22;5504;47.312;11.060;2022-08-27T11:29:27;28.90;60.00
10903;DHT22;5504;47.312;11.060;2022-08-27T11:34:41;28.40;59.30
10903;DHT22;5504;47.312;11.060;2022-08-27T11:40:35;27.90;61.70
10903;DHT22;5504;47.312;11.060;2022-08-27T11:43:03;27.80;61.00
10903;DHT22;5504;47.312;11.060;2022-08-27T11:45:33;27.20;61.90
10903;DHT22;5504;47.312;11.060;2022-08-27T11:48:22;27.00;63.10
10903;DHT22;5504;47.312;11.060;2022-08-27T11:51:00;26.80;63.30
10903;DHT22;5504;47.312;11.060;2022-08-27T11:53:30;26.80;64.10
10903;DHT22;5504;47.312;11.060;2022-08-27T11:55:57;26.60;63.80
10903;DHT22;5504;47.312;11.060;2022-08-27T11:58:34;26.50;65.20
10903;DHT22;5504;47.312;11.060;2022-08-27T12:00:59;26.40;63.80
10903;DHT22;5504;47.312;11.060;2022-08-27T12:03:31;26.30;64.30
10903;DHT22;5504;47.312;11.060;2022-08-27T12:27:33;27.70;67.00
10903;DHT22;5504;47.312;11.060;2022-08-27T12:30:06;28.20;62.00
10903;DHT22;5504;47.312;11.060;2022-08-27T12:32:44;28.30;62.30
10903;DHT22;5504;47.312;11.060;2022-08-27T12:35:22;28.60;63.00
10903;DHT22;5504;47.312;11.060;2022-08-27T12:40:36;29.00;60.70
10903;DHT22;5504;47.312;11.060;2022-08-27T12:43:26;29.00;59.50
10903;DHT22;5504;47.312;11.060;2022-08-27T12:45:56;28.90;59.70
10903;DHT22;5504;47.312;11.060;2022-08-27T12:48:27;28.70;59.60
10903;DHT22;5504;47.312;11.060;2022-08-27T12:50:57;28.30;60.00
10903;DHT22;5504;47.312;11.060;2022-08-27T12:56:26;27.70;61.40
10903;DHT22;5504;47.312;11.060;2022-08-27T13:04:40;26.40;61.50
10903;DHT22;5504;47.312;11.060;2022-08-27T13:07:06;26.30;63.10
10903;DHT22;5504;47.312;11.060;2022-08-27T13:09:35;26.20;63.10
10903;DHT22;5504;47.312;11.060;2022-08-27T13:12:03;26.10;63.30
10903;DHT22;5504;47.312;11.060;2022-08-27T13:14:37;26.00;62.50
10903;DHT22;5504;47.312;11.060;2022-08-27T13:17:07;26.00;64.00
10903;DHT22;5504;47.312;11.060;2022-08-27T13:19:45;26.10;62.20
10903;DHT22;5504;47.312;11.060;2022-08-27T13:22:27;26.20;60.80
10903;DHT22;5504;47.312;11.060;2022-08-27T13:24:55;26.30;61.10
10903;DHT22;5504;47.312;11.060;2022-08-27T13:27:30;26.40;62.30
10903;DHT22;5504;47.312;11.060;2022-08-27T13:30:07;26.30;60.70
10903;DHT22;5504;47.312;11.060;2022-08-27T13:32:35;26.10;60.80
10903;DHT22;5504;47.312;11.060;2022-08-27T13:35:02;26.20;60.50
10903;DHT22;5504;47.312;11.060;2022-08-27T13:37:35;26.30;62.90
10903;DHT22;5504;47.312;11.060;2022-08-27T13:40:02;26.30;62.00
10903;DHT22;5504;47.312;11.060;2022-08-27T13:42:28;26.40;62.40
10903;DHT22;5504;47.312;11.060;2022-08-27T13:45:01;26.40;63.20
10903;DHT22;5504;47.312;11.060;2022-08-27T13:47:29;26.40;62.30
10903;DHT22;5504;47.312;11.060;2022-08-27T13:50:07;26.40;64.70
10903;DHT22;5504;47.312;11.060;2022-08-27T13:52:36;26.40;68.00
10903;DHT22;5504;47.312;11.060;2022-08-27T13:55:26;26.40;65.20
10903;DHT22;5504;47.312;11.060;2022-08-27T13:57:53;26.30;64.50
10903;DHT22;5504;47.312;11.060;2022-08-27T14:00:30;26.20;64.30
10903;DHT22;5504;47.312;11.060;2022-08-27T14:02:57;26.00;65.10
10903;DHT22;5504;47.312;11.060;2022-08-27T14:07:53;25.60;65.60
10903;DHT22;5504;47.312;11.060;2022-08-27T14:10:44;25.50;66.00
10903;DHT22;5504;47.312;11.060;2022-08-27T14:13:19;25.40;68.10
10903;DHT22;5504;47.312;11.060;2022-08-27T14:15:54;25.40;73.60
10903;DHT22;5504;47.312;11.060;2022-08-27T14:18:21;25.40;72.30
10903;DHT22;5504;47.312;11.060;2022-08-27T14:20:47;25.40;71.90
10903;DHT22;5504;47.312;11.060;2022-08-27T14:23:13;25.40;72.60
10903;DHT22;5504;47.312;11.060;2022-08-27T14:25:39;25.50;68.60
10903;DHT22;5504;47.312;11.060;2022-08-27T14:28:05;25.50;67.80
10903;DHT22;5504;47.312;11.060;2022-08-27T14:30:31;25.20;67.70
10903;DHT22;5504;47.312;11.060;2022-08-27T14:32:58;24.90;69.80
10903;DHT22;5504;47.312;11.060;2022-08-27T14:35:25;24.80;70.50
10903;DHT22;5504;47.312;11.060;2022-08-27T14:37:51;24.60;71.60
10903;DHT22;5504;47.312;11.060;2022-08-27T14:40:17;24.30;73.30
10903;DHT22;5504;47.312;11.060;2022-08-27T14:42:43;24.10;74.30
10903;DHT22;5504;47.312;11.060;2022-08-27T14:45:09;23.90;78.20
10903;DHT22;5504;47.312;11.060;2022-08-27T14:47:37;23.80;80.40
10903;DHT22;5504;47.312;11.060;2022-08-27T14:50:07;23.50;83.50
10903;DHT22;5504;47.312;11.060;2022-08-27T14:52:34;23.30;85.50
10903;DHT22;5504;47.312;11.060;2022-08-27T14:55:00;23.10;88.20
10903;DHT22;5504;47.312;11.060;2022-08-27T14:57:26;22.80;88.20
10903;DHT22;5504;47.312;11.060;2022-08-27T14:59:51;22.80;87.40
10903;DHT22;5504;47.312;11.060;2022-08-27T15:02:18;22.70;89.50
10903;DHT22;5504;47.312;11.060;2022-08-27T15:04:45;22.60;90.50
10903;DHT22;5504;47.312;11.060;2022-08-27T15:07:12;22.80;90.90
10903;DHT22;5504;47.312;11.060;2022-08-27T15:09:37;22.10;91.40
10903;DHT22;5504;47.312;11.060;2022-08-27T15:12:03;22.30;92.70
10903;DHT22;5504;47.312;11.060;2022-08-27T15:14:31;22.40;93.60
10903;DHT22;5504;47.312;11.060;2022-08-27T15:16:58;22.60;93.30
10903;DHT22;5504;47.312;11.060;2022-08-27T15:19:26;22.60;93.20
10903;DHT22;5504;47.312;11.060;2022-08-27T15:21:54;22.80;93.20
10903;DHT22;5504;47.312;11.060;2022-08-27T15:24:24;23.10;92.70
10903;DHT22;5504;47.312;11.060;2022-08-27T15:26:51;23.20;92.40
10903;DHT22;5504;47.312;11.060;2022-08-27T15:29:17;23.30;92.20
10903;DHT22;5504;47.312;11.060;2022-08-27T15:31:43;23.40;92.30
10903;DHT22;5504;47.312;11.060;2022-08-27T15:34:10;23.40;92.10
10903;DHT22;5504;47.312;11.060;2022-08-27T15:36:37;23.40;92.00
10903;DHT22;5504;47.312;11.060;2022-08-27T15:39:04;23.40;92.00
10903;DHT22;5504;47.312;11.060;2022-08-27T15:41:30;23.50;91.50
10903;DHT22;5504;47.312;11.060;2022-08-27T15:43:56;23.50;91.40
10903;DHT22;5504;47.312;11.060;2022-08-27T15:46:22;23.50;91.50
10903;DHT22;5504;47.312;11.060;2022-08-27T15:48:50;23.50;91.70
10903;DHT22;5504;47.312;11.060;2022-08-27T15:51:16;23.40;91.90
10903;DHT22;5504;47.312;11.060;2022-08-27T15:53:44;23.30;92.20
10903;DHT22;5504;47.312;11.060;2022-08-27T15:56:10;22.90;92.40
10903;DHT22;5504;47.312;11.060;2022-08-27T15:58:36;22.90;93.40
10903;DHT22;5504;47.312;11.060;2022-08-27T16:01:07;22.90;93.90
10903;DHT22;5504;47.312;11.060;2022-08-27T16:03:34;22.80;94.10
10903;DHT22;5504;47.312;11.060;2022-08-27T16:06:00;22.80;94.10
10903;DHT22;5504;47.312;11.060;2022-08-27T16:08:26;22.90;94.60
10903;DHT22;5504;47.312;11.060;2022-08-27T16:10:53;22.90;94.60
10903;DHT22;5504;47.312;11.060;2022-08-27T16:13:19;22.90;94.60
10903;DHT22;5504;47.312;11.060;2022-08-27T16:15:45;22.90;95.20
10903;DHT22;5504;47.312;11.060;2022-08-27T16:18:11;22.80;95.00
10903;DHT22;5504;47.312;11.060;2022-08-27T16:20:37;22.80;94.90
10903;DHT22;5504;47.312;11.060;2022-08-27T16:23:03;22.80;94.90
10903;DHT22;5504;47.312;11.060;2022-08-27T16:25:29;22.70;94.90
10903;DHT22;5504;47.312;11.060;2022-08-27T16:27:55;22.60;95.30
10903;DHT22;5504;47.312;11.060;2022-08-27T16:30:25;22.50;95.50
10903;DHT22;5504;47.312;11.060;2022-08-27T16:32:51;22.50;95.90
10903;DHT22;5504;47.312;11.060;2022-08-27T16:35:19;22.50;95.60
10903;DHT22;5504;47.312;11.060;2022-08-27T16:37:45;22.40;95.90
10903;DHT22;5504;47.312;11.060;2022-08-27T16:40:12;22.40;96.00
10903;DHT22;5504;47.312;11.060;2022-08-27T16:42:45;22.30;95.90
10903;DHT22;5504;47.312;11.060;2022-08-27T16:45:13;22.20;95.90
10903;DHT22;5504;47.312;11.060;2022-08-27T16:47:39;22.20;96.00
10903;DHT22;5504;47.312;11.060;2022-08-27T16:50:25;22.20;96.40
10903;DHT22;5504;47.312;11.060;2022-08-27T16:53:11;22.20;96.30
10903;DHT22;5504;47.312;11.060;2022-08-27T16:55:42;22.10;96.70
10903;DHT22;5504;47.312;11.060;2022-08-27T16:58:15;22.10;96.50
10903;DHT22;5504;47.312;11.060;2022-08-27T17:00:42;22.10;96.80
10903;DHT22;5504;47.312;11.060;2022-08-27T17:03:08;22.10;97.00
10903;DHT22;5504;47.312;11.060;2022-08-27T17:05:34;22.00;97.00
10903;DHT22;5504;47.312;11.060;2022-08-27T17:08:00;22.00;96.80
10903;DHT22;5504;47.312;11.060;2022-08-27T17:10:31;22.00;96.80
10903;DHT22;5504;47.312;11.060;2022-08-27T17:12:58;22.00;97.00